Flight Track Log - Related Links

Times and Time Zones

All times are in EDT time to prevent confusion due to time zone crossing. See the N678MB flight status page for this flight to view local times or setup timezone preferences in your user account.

Time Position Orientation Groundspeed Altitude Reporting Facility
EDT Latitude Longitude Course Direction KTS MPH feet Rate Location/Type
Sun 07:56:55 PM 38.4464 -75.6500 312° West 268 308 5,900  Level Washington Center
Sun 07:57:53 PM 38.4900 -75.7111 312° West 255 293 5,900  Level Washington Center
Sun 07:58:53 PM 38.5400 -75.7747 315° West 244 281 5,900  Level Washington Center
Sun 07:59:54 PM 38.5836 -75.8386 311° West 244 281 5,900  Level Washington Center
Sun 08:00:55 PM 38.6294 -75.9025 313° West 238 274 5,900  Level Washington Center
Sun 08:01:00 PM 38.3559 -75.5319 312° West  Level FlightAware Approximate
Sun 08:01:53 PM 38.6772 -75.9639 315° West 238 274 5,900  Level Washington Center
Sun 08:02:00 PM 38.3936 -75.5851 312° West  Level FlightAware Approximate
Sun 08:02:54 PM 38.7250 -76.0333 311° West 243 280 5,900  Level Washington Center
Sun 08:03:55 PM 38.7706 -76.0950 313° West 238 274 5,900  Level Washington Center
Sun 08:04:56 PM 38.8139 -76.1592 311° West 243 280 5,900  Level Washington Center
Sun 08:05:54 PM 38.8553 -76.2233 310° West 243 280 5,900  Level Washington Center
Sun 08:06:55 PM 38.9031 -76.2878 314° West 248 285 5,900  Level Washington Center
Sun 08:07:55 PM 38.9506 -76.3578 311° West 248 285 5,900  Level Washington Center
Sun 08:08:53 PM 38.9981 -76.4250 312° West 253 291 5,900 43 Level Washington Center
Sun 08:10:16 PM 39.0667 -76.5333 309° West 264 304 6,000 81 Climbing Potomac TRACON
Sun 08:11:22 PM 39.0833 -76.6333 282° West 263 303 6,100 50 Climbing Potomac TRACON
Sun 08:12:17 PM 39.0833 -76.7167 270° West 265 305 6,100 -157 Level Potomac TRACON
Sun 08:13:17 PM 39.1000 -76.8000 284° West 263 303 5,800 -950 Descending Potomac TRACON
Sun 08:14:17 PM 39.1167 -76.8833 284° West 229 264 4,200 -1,550 Descending Potomac TRACON
Sun 08:15:17 PM 39.1333 -76.9667 284° West 217 250 2,700 -1,050 Descending Potomac TRACON
Sun 08:16:17 PM 39.1500 -77.0333 288° West 174 200 2,100 -446 Descending Potomac TRACON
Sun 08:17:18 PM 39.1500 -77.0833 270° West 138 159 1,800 -365 Descending Potomac TRACON
Sun 08:18:12 PM 39.1333 -77.1167 237° Southwest 110 127 1,400 -400 Descending Potomac TRACON
Sun 08:19:18 PM 39.1500 -77.1500 303° West 102 117 1,000 -364 Descending Potomac TRACON
Sun 08:21:00 PM 39.1667 -77.1500 270° West  Level FlightAware Approximate
Sun 08:28:00 PM 39.1683 -77.1660 270° West  Level Estimated
Sun 08:29:00 PM 39.1683 -77.1660 270° West  Level Estimated
Sun 08:30:00 PM 39.1683 -77.1660 270° West  Level Estimated
Sun 08:31:00 PM 39.1683 -77.1660 270° West  Level Estimated

Login

Don't have an account? Register now (free) for customized features, flight alerts, and more!